CheckWX is a tool to help pilots better visualize weather data.  It is not intended as a substitute for an official pre-flight weather briefing.

17:04:25 UTC

CYIO TAF
Pond Inlet Airport
Pond Inlet, Canada
TAF CYIO 181238Z 1813/1901 VRB03KT P6SM -RA OVC020 TEMPO 1813/1818 P6SM NSW OVC030 FM181800 VRB03KT P6SM -RA OVC025 TEMPO 1818/1901 5SM -RA BR SCT005 BKN012 OVC025 RMK FCST BASED ON AUTO OBS. NXT FCST BY 181900Z

Jun-18@
13:00 UTC

Jun-18 @ 13:00 UTC

Jun-18@
18:00 UTC

Jun-18 @ 18:00 UTC

TAF CYIO 181238Z 1813/1901 VRB03KT P6SM -RA OVC020
Wind
  • Variable at 3 KTS
Conditions
Light Rain
Cloud Levels
  • Overcast at 2,000' AGL

Jun-18@
13:00 UTC

Jun-18 @ 13:00 UTC

Jun-18@
18:00 UTC

Jun-18 @ 18:00 UTC

TEMPO 1813/1818 P6SM NSW OVC030

Temporary

Temporary Changes expected for less than half the time period

Conditions
No significant weather
Cloud Levels
  • Overcast at 3,000' AGL

Jun-18@
18:00 UTC

Jun-18 @ 18:00 UTC

Jun-19@
01:00 UTC

Jun-19 @ 01:00 UTC

FM181800 VRB03KT P6SM -RA OVC025

From

From Standard forecast or significant change

Wind
  • Variable at 3 KTS
Conditions
Light Rain
Cloud Levels
  • Overcast at 2,500' AGL

Jun-18@
18:00 UTC

Jun-18 @ 18:00 UTC

Jun-19@
01:00 UTC

Jun-19 @ 01:00 UTC

TEMPO 1818/1901 5SM -RA BR SCT005 BKN012 OVC025 RMK FCST BASED ON AUTO OBS. NXT FCST BY 181900Z

Temporary

Temporary Changes expected for less than half the time period

Conditions
Light Rain, Mist
Cloud Levels
  • Scattered at 500' AGL
  • Broken at 1,200' AGL
  • Overcast at 2,500' AGL